< < Back
Terminal Aerodrome Forecast


Current Version              Previous Versions:   1  2  3  4  5  6  7  8  9  

Terminal Aerodrome Forecast

691
FTUS42 KTAE 211100
TAFDHN
TAF
KDHN 211135Z 2112/2212 06007KT P6SM OVC006
     FM211900 07005KT 6SM -RA OVC012
     FM220200 08005KT 6SM -RA OVC007
     FM220700 09004KT P6SM OVC005=



Latest METAR

375
SAUS70 KWBC 211200 RRC
MTRDHN
METAR KDHN 211153Z AUTO 05007KT 10SM SCT008 OVC023 12/11 A3015 RMK AO2
SLP207 70002 T01170106 10117 20111 55002


USA.gov is the U.S. government's official web portal to all federal, state and local government web resources and services.